createdAt,value
2019-03-30T00:02:13.983Z,27.22
2019-03-30T00:04:42.653Z,33.02
2019-03-30T00:07:11.389Z,24.82
2019-03-30T00:09:40.114Z,30.27
2019-03-30T00:12:08.846Z,26.33
2019-03-30T00:14:37.585Z,29.27
2019-03-30T00:17:06.323Z,25.72
2019-03-30T00:19:35.326Z,27.17
2019-03-30T00:22:04.350Z,26.02
2019-03-30T00:24:33.081Z,29.25
2019-03-30T00:27:01.749Z,24.12
2019-03-30T00:29:30.479Z,33.60
2019-03-30T00:31:59.217Z,31.95
2019-03-30T00:34:27.876Z,31.93
2019-03-30T00:36:56.542Z,26.45
2019-03-30T00:39:25.203Z,25.90
2019-03-30T00:41:53.857Z,26.20
2019-03-30T00:44:22.518Z,25.15
2019-03-30T00:46:51.256Z,30.48
2019-03-30T00:49:19.910Z,24.85
2019-03-30T00:51:48.656Z,30.55
2019-03-30T00:54:17.307Z,32.73
2019-03-30T00:56:46.039Z,23.40
2019-03-30T00:59:14.705Z,22.62
2019-03-30T01:01:43.430Z,30.23
2019-03-30T01:04:12.160Z,25.15
2019-03-30T01:06:40.896Z,23.67
2019-03-30T01:09:10.000Z,28.83
2019-03-30T01:11:38.660Z,25.37
2019-03-30T01:14:07.391Z,33.40
2019-03-30T01:16:36.042Z,38.48
2019-03-30T01:19:04.782Z,35.88
2019-03-30T01:21:33.441Z,34.38
2019-03-30T01:24:02.178Z,31.15
2019-03-30T01:26:30.906Z,30.65
2019-03-30T01:28:59.638Z,26.07
2019-03-30T01:31:28.362Z,32.23
2019-03-30T01:33:57.106Z,34.00
2019-03-30T01:36:25.835Z,27.10
2019-03-30T01:38:54.589Z,26.75
2019-03-30T01:41:23.342Z,27.17
2019-03-30T01:43:52.039Z,31.35
2019-03-30T01:46:20.771Z,27.45
2019-03-30T01:48:49.497Z,28.50
2019-03-30T01:51:18.162Z,28.62
2019-03-30T01:53:47.163Z,32.08
2019-03-30T01:56:15.872Z,29.63
2019-03-30T01:58:44.614Z,25.75
2019-03-30T02:01:13.334Z,29.10
2019-03-30T02:03:42.066Z,26.00
2019-03-30T02:06:10.798Z,36.77
2019-03-30T02:08:39.526Z,25.20
2019-03-30T02:11:08.260Z,29.15
2019-03-30T02:13:36.985Z,29.82
2019-03-30T02:16:05.718Z,31.85
2019-03-30T02:18:34.453Z,31.10
2019-03-30T02:21:03.183Z,29.07
2019-03-30T02:23:31.917Z,31.77
2019-03-30T02:26:00.659Z,43.13
2019-03-30T02:28:29.343Z,36.90
2019-03-30T02:30:58.046Z,37.78
2019-03-30T02:33:26.707Z,41.05
2019-03-30T02:35:55.510Z,31.45
2019-03-30T02:38:24.242Z,28.33
2019-03-30T02:40:52.906Z,33.28
2019-03-30T02:43:21.560Z,31.87
2019-03-30T02:45:50.294Z,35.25
2019-03-30T02:48:19.025Z,33.98
2019-03-30T02:50:50.341Z,30.88
2019-03-30T02:53:18.082Z,38.78
2019-03-30T02:55:46.803Z,35.80
2019-03-30T02:58:15.469Z,41.08
2019-03-30T03:00:44.199Z,38.55
2019-03-30T03:03:12.943Z,48.63
2019-03-30T03:05:41.663Z,36.45
2019-03-30T03:08:10.399Z,32.83
2019-03-30T03:10:39.137Z,41.25
2019-03-30T03:13:07.798Z,38.78
2019-03-30T03:15:36.521Z,39.95
2019-03-30T03:18:05.268Z,33.98
2019-03-30T03:20:34.005Z,48.08
2019-03-30T03:23:02.739Z,35.30
2019-03-30T03:25:31.469Z,37.48
2019-03-30T03:28:00.208Z,39.67
2019-03-30T03:30:28.942Z,39.75
2019-03-30T03:32:57.680Z,39.48
2019-03-30T03:35:26.333Z,31.37
2019-03-30T03:37:55.059Z,32.85
2019-03-30T03:40:23.782Z,31.40
2019-03-30T03:42:52.515Z,45.48
2019-03-30T03:45:21.248Z,29.27
2019-03-30T03:47:49.982Z,34.08
2019-03-30T03:50:36.086Z,36.63
2019-03-30T03:53:04.925Z,34.88
2019-03-30T03:55:35.309Z,31.00
2019-03-30T03:58:05.383Z,34.70
2019-03-30T04:00:35.208Z,39.92
2019-03-30T04:03:04.944Z,36.83
2019-03-30T04:05:35.075Z,38.50
2019-03-30T04:08:05.649Z,26.70
2019-03-30T04:10:35.838Z,33.75
2019-03-30T04:13:07.424Z,35.50
2019-03-30T04:15:36.246Z,38.65
2019-03-30T04:18:04.984Z,34.58
2019-03-30T04:20:33.657Z,35.73
2019-03-30T04:23:02.341Z,35.60
2019-03-30T04:25:30.971Z,34.88
2019-03-30T04:27:59.631Z,29.63
2019-03-30T04:30:28.411Z,41.30
2019-03-30T04:32:57.116Z,31.15
2019-03-30T04:35:25.843Z,38.35
2019-03-30T04:37:54.536Z,37.35
2019-03-30T04:40:23.227Z,34.35
2019-03-30T04:42:51.970Z,39.70
2019-03-30T04:45:20.694Z,31.82
2019-03-30T04:47:49.359Z,34.43
2019-03-30T04:50:18.089Z,37.28
2019-03-30T04:52:46.753Z,32.75
2019-03-30T04:55:15.479Z,31.33
2019-03-30T04:57:44.219Z,37.30
2019-03-30T05:00:13.086Z,39.03
2019-03-30T05:02:41.813Z,28.75
2019-03-30T05:05:10.648Z,38.35
2019-03-30T05:07:39.386Z,40.85
2019-03-30T05:10:08.500Z,28.52
2019-03-30T05:12:37.207Z,35.48
2019-03-30T05:15:06.834Z,36.45
2019-03-30T05:17:46.923Z,32.00
2019-03-30T05:20:07.410Z,36.23
2019-03-30T05:22:36.147Z,40.28
2019-03-30T05:25:06.103Z,35.88
2019-03-30T05:27:34.954Z,22.27
2019-03-30T05:30:04.171Z,30.90
2019-03-30T05:32:32.899Z,33.25
2019-03-30T05:35:01.557Z,25.57
2019-03-30T05:37:30.268Z,31.95
2019-03-30T05:39:58.973Z,34.67
2019-03-30T05:42:27.638Z,30.30
2019-03-30T05:44:57.776Z,27.77
2019-03-30T05:47:26.734Z,31.23
2019-03-30T05:49:55.466Z,36.05
2019-03-30T05:52:26.666Z,29.32
2019-03-30T05:54:54.578Z,32.30
2019-03-30T05:57:23.239Z,23.62
2019-03-30T05:59:51.903Z,33.95
2019-03-30T06:02:20.566Z,21.90
2019-03-30T06:04:49.239Z,23.40
2019-03-30T06:07:17.894Z,22.90
2019-03-30T06:09:46.645Z,30.68
2019-03-30T06:12:15.314Z,26.40
2019-03-30T06:14:43.979Z,22.00
2019-03-30T06:17:12.706Z,31.30
2019-03-30T06:19:41.443Z,25.60
2019-03-30T06:22:10.111Z,28.35
2019-03-30T06:24:38.774Z,26.85
2019-03-30T06:27:07.442Z,23.42
2019-03-30T06:29:36.106Z,26.20
2019-03-30T06:32:04.848Z,26.90
2019-03-30T06:34:33.597Z,22.80
2019-03-30T06:37:02.298Z,25.45
2019-03-30T06:39:30.934Z,25.45
2019-03-30T06:41:59.666Z,21.42
2019-03-30T06:44:28.338Z,21.97
2019-03-30T06:46:57.075Z,20.17
2019-03-30T06:49:25.811Z,22.02
2019-03-30T06:51:54.548Z,23.62
2019-03-30T06:54:23.225Z,18.90
2019-03-30T06:56:51.970Z,20.35
2019-03-30T06:59:20.713Z,36.38
2019-03-30T07:01:49.751Z,21.73
2019-03-30T07:04:18.464Z,30.57
2019-03-30T07:06:47.650Z,19.80
2019-03-30T07:09:17.863Z,23.75
2019-03-30T07:11:48.995Z,22.35
2019-03-30T07:14:17.840Z,23.67
2019-03-30T07:16:48.070Z,18.90
2019-03-30T07:19:17.110Z,18.07
2019-03-30T07:21:45.775Z,23.75
2019-03-30T07:24:14.408Z,21.97
2019-03-30T07:26:43.107Z,22.93
2019-03-30T07:29:11.845Z,22.90
2019-03-30T07:31:40.587Z,19.92
2019-03-30T07:34:09.243Z,19.67
2019-03-30T07:36:37.910Z,21.97
2019-03-30T07:39:06.635Z,20.50
2019-03-30T07:41:35.298Z,24.12
2019-03-30T07:44:04.030Z,20.62
2019-03-30T07:46:32.714Z,18.48
2019-03-30T07:49:01.409Z,28.30
2019-03-30T07:51:33.253Z,21.60
2019-03-30T07:54:00.378Z,24.65
2019-03-30T07:56:29.067Z,23.35
2019-03-30T07:58:57.810Z,23.70
2019-03-30T08:01:26.477Z,25.02
2019-03-30T08:03:55.223Z,24.82
2019-03-30T08:06:23.957Z,30.15
2019-03-30T08:08:52.706Z,34.75
2019-03-30T08:11:21.395Z,24.90
2019-03-30T08:13:50.026Z,29.80
2019-03-30T08:16:18.693Z,20.23
2019-03-30T08:18:47.434Z,27.85
2019-03-30T08:21:16.178Z,22.82
2019-03-30T08:23:44.910Z,26.07
2019-03-30T08:26:13.677Z,22.40
2019-03-30T08:28:42.411Z,19.30
2019-03-30T08:31:11.149Z,15.13
2019-03-30T08:33:39.882Z,15.05
2019-03-30T08:36:08.619Z,28.55
2019-03-30T08:38:37.361Z,18.15
2019-03-30T08:41:06.048Z,18.62
2019-03-30T08:43:34.718Z,14.95
2019-03-30T08:46:03.510Z,18.77
2019-03-30T08:48:32.257Z,15.60
2019-03-30T08:51:00.991Z,20.05
2019-03-30T08:53:29.660Z,23.65
2019-03-30T08:55:58.496Z,21.05
2019-03-30T08:58:27.138Z,18.42
2019-03-30T09:00:55.799Z,18.82
2019-03-30T09:03:24.471Z,17.62
2019-03-30T09:05:53.222Z,21.05
2019-03-30T09:08:21.935Z,16.62
2019-03-30T09:10:50.631Z,20.23
2019-03-30T09:13:19.323Z,17.73
2019-03-30T09:15:48.063Z,20.40
2019-03-30T09:18:16.725Z,21.80
2019-03-30T09:20:45.459Z,16.93
2019-03-30T09:23:14.190Z,24.57
2019-03-30T09:25:42.927Z,22.02
2019-03-30T09:28:11.659Z,15.23
2019-03-30T09:30:40.439Z,21.25
2019-03-30T09:33:09.102Z,17.02
2019-03-30T09:35:37.843Z,19.17
2019-03-30T09:38:06.576Z,22.15
2019-03-30T09:40:35.303Z,19.20
2019-03-30T09:43:04.042Z,17.98
2019-03-30T09:45:32.771Z,22.52
2019-03-30T09:48:01.504Z,19.48
2019-03-30T09:50:30.239Z,24.10
2019-03-30T09:52:58.969Z,19.23
2019-03-30T09:55:27.739Z,23.87
2019-03-30T09:57:56.366Z,17.17
2019-03-30T10:00:25.057Z,15.48
2019-03-30T10:02:53.693Z,17.00
2019-03-30T10:05:22.419Z,17.23
2019-03-30T10:07:51.091Z,18.52
2019-03-30T10:10:19.825Z,22.40
2019-03-30T10:12:48.487Z,18.85
2019-03-30T10:15:17.223Z,19.85
2019-03-30T10:17:45.955Z,17.05
2019-03-30T10:20:14.804Z,33.67
2019-03-30T10:22:43.526Z,23.55
2019-03-30T10:25:12.276Z,16.12
2019-03-30T10:27:41.012Z,14.25
2019-03-30T10:30:10.345Z,16.48
2019-03-30T10:32:39.088Z,13.95
2019-03-30T10:35:07.923Z,15.90
2019-03-30T10:37:36.659Z,15.23
2019-03-30T10:40:07.701Z,18.37
2019-03-30T10:45:08.402Z,17.62
2019-03-30T10:47:37.072Z,18.42
2019-03-30T10:50:08.910Z,17.27
2019-03-30T10:52:37.642Z,22.20
2019-03-30T10:55:07.377Z,23.00
2019-03-30T10:57:35.978Z,21.15
2019-03-30T11:00:09.178Z,17.80
2019-03-30T11:02:39.455Z,14.00
2019-03-30T11:05:08.263Z,16.42
2019-03-30T11:07:37.001Z,22.73
2019-03-30T11:10:07.804Z,20.02
2019-03-30T11:12:36.475Z,16.42
2019-03-30T11:15:06.506Z,17.85
2019-03-30T11:17:35.099Z,21.97
2019-03-30T11:20:04.541Z,18.15
2019-03-30T11:22:33.306Z,24.85
2019-03-30T11:25:08.046Z,17.48
2019-03-30T11:27:32.334Z,17.80
2019-03-30T11:30:01.075Z,21.73
2019-03-30T11:32:29.797Z,15.50
2019-03-30T11:34:58.466Z,17.77
2019-03-30T11:37:27.199Z,20.95
2019-03-30T11:39:55.802Z,11.30
2019-03-30T11:42:24.529Z,15.93
2019-03-30T11:44:53.210Z,21.77
2019-03-30T11:47:21.955Z,13.98
2019-03-30T11:49:50.602Z,17.62
2019-03-30T11:52:19.333Z,22.07
2019-03-30T11:54:48.065Z,15.93
2019-03-30T11:57:16.810Z,14.60
2019-03-30T11:59:45.407Z,14.28
2019-03-30T12:02:26.934Z,11.40
2019-03-30T12:04:44.517Z,18.00
2019-03-30T12:07:13.251Z,15.10
2019-03-30T12:09:41.847Z,18.40
2019-03-30T12:12:10.578Z,25.00
2019-03-30T12:14:39.317Z,18.57
2019-03-30T12:17:08.053Z,20.57
2019-03-30T12:19:36.719Z,28.25
2019-03-30T12:22:05.462Z,20.90
2019-03-30T12:24:34.198Z,21.55
2019-03-30T12:27:02.935Z,18.98
2019-03-30T12:29:31.596Z,13.10
2019-03-30T12:32:00.289Z,21.97
2019-03-30T12:34:28.981Z,18.85
2019-03-30T12:36:57.724Z,23.38
2019-03-30T12:39:26.349Z,19.87
2019-03-30T12:41:55.070Z,18.05
2019-03-30T12:44:23.745Z,22.17
2019-03-30T12:46:52.475Z,15.65
2019-03-30T12:49:21.202Z,21.37
2019-03-30T12:51:49.870Z,23.90
2019-03-30T12:54:18.606Z,21.52
2019-03-30T12:56:47.270Z,21.27
2019-03-30T12:59:15.999Z,19.05
2019-03-30T13:01:44.745Z,19.05
2019-03-30T13:04:13.472Z,23.65
2019-03-30T13:06:42.143Z,26.65
2019-03-30T13:09:10.870Z,18.05
2019-03-30T13:11:39.605Z,16.70
2019-03-30T13:14:08.340Z,20.80
2019-03-30T13:16:37.081Z,17.73
2019-03-30T13:19:05.819Z,18.27
2019-03-30T13:21:34.479Z,17.48
2019-03-30T13:24:03.220Z,9.30
2019-03-30T13:26:32.230Z,29.12
2019-03-30T13:29:00.966Z,13.38
2019-03-30T13:31:29.699Z,15.98
2019-03-30T13:34:00.248Z,18.67
2019-03-30T13:36:42.223Z,13.08
2019-03-30T13:39:11.167Z,22.22
2019-03-30T13:41:39.904Z,15.05
2019-03-30T13:44:08.641Z,16.80
2019-03-30T13:46:37.415Z,19.40
2019-03-30T13:49:06.154Z,22.40
2019-03-30T13:51:34.755Z,17.95
2019-03-30T13:54:03.501Z,23.02
2019-03-30T13:56:32.230Z,27.85
2019-03-30T13:59:00.986Z,20.45
2019-03-30T14:01:29.669Z,22.20
2019-03-30T14:03:58.415Z,25.05
2019-03-30T14:06:29.619Z,26.42
2019-03-30T14:08:58.357Z,20.30
2019-03-30T14:11:27.098Z,15.10
2019-03-30T14:13:55.794Z,24.57
2019-03-30T14:16:24.494Z,18.57
2019-03-30T14:18:53.127Z,45.25
2019-03-30T14:21:21.859Z,15.38
2019-03-30T14:23:50.608Z,22.42
2019-03-30T14:26:30.673Z,24.82
2019-03-30T14:28:49.718Z,19.12
2019-03-30T14:31:18.459Z,22.52
2019-03-30T14:33:47.049Z,19.25
2019-03-30T14:36:15.791Z,23.12
2019-03-30T14:38:44.522Z,19.57
2019-03-30T14:41:13.266Z,20.45
2019-03-30T14:43:41.929Z,22.48
2019-03-30T14:46:10.675Z,20.92
2019-03-30T14:48:39.270Z,21.93
2019-03-30T14:51:08.016Z,17.90
2019-03-30T14:53:36.682Z,22.07
2019-03-30T14:56:05.418Z,20.90
2019-03-30T14:58:34.160Z,23.50
2019-03-30T15:01:03.341Z,22.30
2019-03-30T15:03:32.173Z,21.17
2019-03-30T15:06:00.908Z,28.52
2019-03-30T15:08:29.643Z,26.82
2019-03-30T15:10:58.377Z,23.15
2019-03-30T15:13:27.050Z,21.50
2019-03-30T15:15:55.794Z,24.40
2019-03-30T15:18:24.420Z,19.87
2019-03-30T15:20:53.122Z,25.65
2019-03-30T15:23:21.858Z,23.45
2019-03-30T15:25:50.603Z,19.98
2019-03-30T15:28:19.200Z,22.05
2019-03-30T15:30:47.878Z,18.57
2019-03-30T15:33:16.610Z,22.87
2019-03-30T15:35:45.208Z,24.40
2019-03-30T15:38:13.950Z,21.90
2019-03-30T15:40:42.615Z,26.70
2019-03-30T15:43:11.353Z,24.72
2019-03-30T15:45:40.083Z,21.25
2019-03-30T15:48:08.826Z,16.57
2019-03-30T15:50:37.559Z,15.93
2019-03-30T15:53:06.299Z,24.02
2019-03-30T15:55:35.035Z,21.93
2019-03-30T15:58:03.775Z,28.38
2019-03-30T16:00:32.379Z,25.02
2019-03-30T16:03:01.126Z,17.55
2019-03-30T16:05:29.789Z,17.42
2019-03-30T16:07:58.527Z,20.25
2019-03-30T16:10:27.271Z,33.05
2019-03-30T16:12:56.005Z,22.10
2019-03-30T16:15:24.665Z,15.98
2019-03-30T16:17:53.400Z,17.90
2019-03-30T16:20:22.451Z,24.27
2019-03-30T16:22:51.194Z,20.32
2019-03-30T16:25:19.936Z,23.38
2019-03-30T16:27:48.674Z,26.00
2019-03-30T16:30:17.509Z,26.85
2019-03-30T16:32:46.247Z,17.23
2019-03-30T16:35:14.978Z,25.30
2019-03-30T16:37:43.718Z,24.25
2019-03-30T16:40:12.464Z,24.87
2019-03-30T16:42:41.202Z,21.82
2019-03-30T16:45:09.944Z,146.82
2019-03-30T16:47:38.679Z,28.40
2019-03-30T16:50:08.995Z,156.15
2019-03-30T16:52:40.797Z,36.25
2019-03-30T16:55:08.214Z,31.68
2019-03-30T16:57:43.167Z,24.87
2019-03-30T17:00:08.176Z,34.88
2019-03-30T17:02:36.905Z,31.05
2019-03-30T17:05:07.853Z,25.20
2019-03-30T17:10:06.874Z,28.47
2019-03-30T17:12:35.606Z,22.22
2019-03-30T17:15:06.816Z,24.98
2019-03-30T17:17:35.546Z,26.12
2019-03-30T17:20:06.693Z,23.42
2019-03-30T17:22:35.427Z,22.02
2019-03-30T17:25:05.176Z,33.67
2019-03-30T17:27:33.841Z,23.32
2019-03-30T17:30:02.646Z,23.80
2019-03-30T17:32:31.299Z,23.75
2019-03-30T17:35:00.029Z,34.63
2019-03-30T17:37:28.698Z,23.35
2019-03-30T17:39:57.433Z,37.70
2019-03-30T17:42:26.167Z,29.37
2019-03-30T17:44:54.895Z,23.85
2019-03-30T17:47:23.640Z,27.58
2019-03-30T17:49:52.374Z,24.82
2019-03-30T17:52:21.034Z,28.40
2019-03-30T17:54:49.703Z,39.98
2019-03-30T17:57:18.358Z,27.65
2019-03-30T17:59:47.024Z,35.00
2019-03-30T18:02:15.831Z,30.70
2019-03-30T18:04:44.566Z,31.45
2019-03-30T18:07:13.760Z,29.87
2019-03-30T18:09:42.559Z,41.42
2019-03-30T18:12:11.292Z,33.90
2019-03-30T18:14:40.026Z,46.48
2019-03-30T18:17:08.770Z,40.78
2019-03-30T18:19:37.528Z,65.10
2019-03-30T18:22:06.238Z,51.25
2019-03-30T18:24:35.061Z,45.78
2019-03-30T18:27:03.750Z,31.00
2019-03-30T18:29:32.491Z,39.75
2019-03-30T18:32:01.263Z,35.28
2019-03-30T18:34:30.397Z,38.60
2019-03-30T18:36:59.529Z,42.05
2019-03-30T18:39:29.063Z,39.98
2019-03-30T18:41:57.798Z,43.23
2019-03-30T18:44:26.843Z,58.80
2019-03-30T18:46:55.583Z,55.33
2019-03-30T18:49:24.324Z,39.30
2019-03-30T18:51:53.763Z,34.85
2019-03-30T18:54:22.996Z,34.48
2019-03-30T18:56:51.728Z,34.38
2019-03-30T18:59:20.465Z,40.20
2019-03-30T19:01:49.126Z,34.65
2019-03-30T19:04:17.793Z,45.40
2019-03-30T19:06:46.486Z,44.85
2019-03-30T19:09:15.192Z,40.65
2019-03-30T19:11:43.921Z,35.38
2019-03-30T19:14:12.598Z,37.33
2019-03-30T19:16:41.338Z,32.70
2019-03-30T19:19:10.065Z,39.98
2019-03-30T19:21:38.742Z,35.70
2019-03-30T19:24:07.474Z,35.52
2019-03-30T19:26:36.129Z,35.43
2019-03-30T19:29:04.858Z,46.30
2019-03-30T19:31:33.599Z,38.78
2019-03-30T19:34:02.259Z,42.00
2019-03-30T19:36:30.986Z,37.45
2019-03-30T19:38:59.722Z,45.60
2019-03-30T19:41:28.447Z,50.05
2019-03-30T19:43:57.156Z,46.55
2019-03-30T19:46:26.729Z,54.93
2019-03-30T19:48:55.577Z,49.70
2019-03-30T19:51:24.244Z,42.75
2019-03-30T19:53:53.058Z,59.85
2019-03-30T19:56:21.724Z,53.63
2019-03-30T19:58:50.448Z,55.00
2019-03-30T20:01:19.180Z,59.80
2019-03-30T20:03:47.848Z,56.88
2019-03-30T20:06:16.582Z,64.47
2019-03-30T20:08:45.311Z,72.17
2019-03-30T20:11:14.110Z,60.40
2019-03-30T20:13:42.708Z,61.08
2019-03-30T20:16:11.366Z,64.27
2019-03-30T20:18:40.026Z,77.03
2019-03-30T20:21:08.766Z,74.22
2019-03-30T20:23:37.488Z,84.67
2019-03-30T20:26:06.226Z,86.00
2019-03-30T20:28:34.963Z,75.30
2019-03-30T20:31:03.686Z,66.95
2019-03-30T20:33:32.369Z,65.62
2019-03-30T20:36:01.025Z,71.57
2019-03-30T20:38:29.763Z,83.60
2019-03-30T20:40:58.450Z,67.45
2019-03-30T20:43:27.158Z,87.55
2019-03-30T20:45:55.805Z,95.55
2019-03-30T20:48:24.475Z,82.25
2019-03-30T20:50:53.227Z,84.62
2019-03-30T20:53:21.873Z,73.25
2019-03-30T20:55:50.615Z,66.85
2019-03-30T20:58:19.273Z,71.67
2019-03-30T21:00:47.940Z,73.65
2019-03-30T21:03:16.670Z,74.30
2019-03-30T21:05:45.369Z,75.15
2019-03-30T21:08:14.069Z,79.65
2019-03-30T21:10:42.803Z,65.92
2019-03-30T21:13:11.462Z,69.25
2019-03-30T21:15:40.126Z,72.42
2019-03-30T21:18:08.800Z,75.62
2019-03-30T21:20:37.528Z,76.95
2019-03-30T21:23:06.204Z,74.22
2019-03-30T21:25:34.932Z,72.10
2019-03-30T21:28:03.759Z,69.12
2019-03-30T21:30:32.423Z,71.07
2019-03-30T21:33:01.082Z,77.00
2019-03-30T21:35:29.822Z,66.42
2019-03-30T21:37:58.823Z,70.35
2019-03-30T21:40:27.526Z,68.17
2019-03-30T21:42:56.185Z,74.12
2019-03-30T21:45:24.916Z,75.75
2019-03-30T21:47:53.655Z,74.75
2019-03-30T21:50:22.407Z,72.10
2019-03-30T21:52:51.146Z,64.37
2019-03-30T21:55:19.875Z,59.70
2019-03-30T21:57:48.542Z,64.92
2019-03-30T22:00:35.243Z,62.13
2019-03-30T22:03:04.382Z,62.93
2019-03-30T22:05:33.910Z,62.40
2019-03-30T22:08:03.543Z,65.80
2019-03-30T22:10:32.202Z,57.50
2019-03-30T22:13:00.857Z,54.98
2019-03-30T22:15:30.007Z,66.95
2019-03-30T22:17:58.727Z,57.00
2019-03-30T22:20:27.461Z,55.28
2019-03-30T22:22:56.204Z,58.02
2019-03-30T22:25:24.934Z,65.50
2019-03-30T22:27:53.669Z,53.93
2019-03-30T22:30:25.176Z,53.45
2019-03-30T22:32:52.772Z,54.30
2019-03-30T22:35:21.439Z,54.40
2019-03-30T22:37:50.167Z,50.92
2019-03-30T22:40:18.833Z,60.17
2019-03-30T22:42:47.566Z,53.13
2019-03-30T22:45:16.300Z,52.20
2019-03-30T22:47:44.974Z,51.75
2019-03-30T22:50:13.999Z,53.50
2019-03-30T22:52:42.670Z,47.62
2019-03-30T22:55:11.798Z,59.10
2019-03-30T22:57:40.428Z,55.28
2019-03-30T23:00:11.463Z,50.38
2019-03-30T23:02:40.337Z,51.92
2019-03-30T23:05:09.068Z,50.52
2019-03-30T23:07:37.798Z,46.50
2019-03-30T23:10:07.232Z,49.35
2019-03-30T23:12:35.965Z,50.40
2019-03-30T23:15:05.201Z,52.45
2019-03-30T23:17:33.846Z,51.42
2019-03-30T23:20:02.514Z,52.60
2019-03-30T23:22:31.243Z,47.15
2019-03-30T23:24:59.973Z,50.05
2019-03-30T23:27:28.634Z,56.80
2019-03-30T23:29:57.371Z,48.02
2019-03-30T23:32:26.105Z,48.08
2019-03-30T23:34:54.770Z,58.60
2019-03-30T23:37:23.458Z,50.92
2019-03-30T23:39:52.157Z,55.28
2019-03-30T23:42:20.887Z,63.25
2019-03-30T23:44:49.556Z,64.07
2019-03-30T23:47:18.286Z,56.25
2019-03-30T23:49:47.013Z,62.98
2019-03-30T23:52:15.682Z,68.60
2019-03-30T23:54:44.338Z,64.72
2019-03-30T23:57:13.069Z,60.83
2019-03-30T23:59:41.729Z,61.02
